sensor_id;sensor_type;location;lat;lon;timestamp;P1;durP1;ratioP1;P2;durP2;ratioP2
55063;SDS011;40963;52.168;21.296;2024-01-27T00:01:04;15.00;;;7.70;;
55063;SDS011;40963;52.168;21.296;2024-01-27T00:03:30;31.55;;;10.02;;
55063;SDS011;40963;52.168;21.296;2024-01-27T00:05:56;20.73;;;8.80;;
55063;SDS011;40963;52.168;21.296;2024-01-27T00:08:21;23.05;;;7.53;;
55063;SDS011;40963;52.168;21.296;2024-01-27T00:10:47;7.60;;;5.15;;
55063;SDS011;40963;52.168;21.296;2024-01-27T00:13:13;18.75;;;7.38;;
55063;SDS011;40963;52.168;21.296;2024-01-27T00:15:38;17.45;;;6.45;;
55063;SDS011;40963;52.168;21.296;2024-01-27T00:18:04;20.55;;;7.22;;
55063;SDS011;40963;52.168;21.296;2024-01-27T00:20:29;16.55;;;6.47;;
55063;SDS011;40963;52.168;21.296;2024-01-27T00:22:55;12.00;;;5.30;;
55063;SDS011;40963;52.168;21.296;2024-01-27T00:25:20;6.80;;;3.58;;
55063;SDS011;40963;52.168;21.296;2024-01-27T00:27:46;13.02;;;5.13;;
55063;SDS011;40963;52.168;21.296;2024-01-27T00:30:12;6.82;;;3.97;;
55063;SDS011;40963;52.168;21.296;2024-01-27T00:32:38;4.32;;;3.08;;
55063;SDS011;40963;52.168;21.296;2024-01-27T00:35:03;5.47;;;2.60;;
55063;SDS011;40963;52.168;21.296;2024-01-27T00:37:29;7.72;;;4.38;;
55063;SDS011;40963;52.168;21.296;2024-01-27T00:39:55;9.35;;;3.90;;
55063;SDS011;40963;52.168;21.296;2024-01-27T00:42:20;4.65;;;2.83;;
55063;SDS011;40963;52.168;21.296;2024-01-27T00:44:49;6.78;;;3.25;;
55063;SDS011;40963;52.168;21.296;2024-01-27T00:47:15;7.75;;;2.35;;
55063;SDS011;40963;52.168;21.296;2024-01-27T00:49:40;6.13;;;2.33;;
55063;SDS011;40963;52.168;21.296;2024-01-27T00:52:06;2.35;;;1.77;;
55063;SDS011;40963;52.168;21.296;2024-01-27T00:54:32;2.53;;;2.15;;
55063;SDS011;40963;52.168;21.296;2024-01-27T00:56:57;2.20;;;1.25;;
55063;SDS011;40963;52.168;21.296;2024-01-27T00:59:23;4.07;;;1.20;;
55063;SDS011;40963;52.168;21.296;2024-01-27T01:01:48;8.80;;;1.42;;
55063;SDS011;40963;52.168;21.296;2024-01-27T01:04:14;5.35;;;1.83;;
55063;SDS011;40963;52.168;21.296;2024-01-27T01:06:40;7.70;;;1.55;;
55063;SDS011;40963;52.168;21.296;2024-01-27T01:09:05;1.42;;;0.80;;
55063;SDS011;40963;52.168;21.296;2024-01-27T01:11:31;1.95;;;1.27;;
55063;SDS011;40963;52.168;21.296;2024-01-27T01:13:57;5.90;;;1.30;;
55063;SDS011;40963;52.168;21.296;2024-01-27T01:16:22;1.27;;;1.13;;
55063;SDS011;40963;52.168;21.296;2024-01-27T01:18:48;2.50;;;0.93;;
55063;SDS011;40963;52.168;21.296;2024-01-27T01:21:13;5.07;;;1.20;;
55063;SDS011;40963;52.168;21.296;2024-01-27T01:23:39;2.55;;;1.10;;
55063;SDS011;40963;52.168;21.296;2024-01-27T01:26:04;1.80;;;1.25;;
55063;SDS011;40963;52.168;21.296;2024-01-27T01:28:30;6.35;;;1.55;;
55063;SDS011;40963;52.168;21.296;2024-01-27T01:30:57;0.88;;;0.88;;
55063;SDS011;40963;52.168;21.296;2024-01-27T01:33:22;9.85;;;1.50;;
55063;SDS011;40963;52.168;21.296;2024-01-27T01:35:48;1.48;;;0.75;;
55063;SDS011;40963;52.168;21.296;2024-01-27T01:38:14;2.05;;;1.35;;
55063;SDS011;40963;52.168;21.296;2024-01-27T01:40:39;1.80;;;0.80;;
55063;SDS011;40963;52.168;21.296;2024-01-27T01:43:11;3.58;;;1.45;;
55063;SDS011;40963;52.168;21.296;2024-01-27T01:45:37;13.27;;;1.48;;
55063;SDS011;40963;52.168;21.296;2024-01-27T01:48:02;2.72;;;1.00;;
55063;SDS011;40963;52.168;21.296;2024-01-27T01:50:29;3.97;;;1.05;;
55063;SDS011;40963;52.168;21.296;2024-01-27T01:52:54;3.08;;;1.00;;
55063;SDS011;40963;52.168;21.296;2024-01-27T01:55:21;1.05;;;1.05;;
55063;SDS011;40963;52.168;21.296;2024-01-27T01:57:46;5.05;;;1.10;;
55063;SDS011;40963;52.168;21.296;2024-01-27T02:00:13;1.40;;;0.88;;
55063;SDS011;40963;52.168;21.296;2024-01-27T02:02:39;3.28;;;1.02;;
55063;SDS011;40963;52.168;21.296;2024-01-27T02:05:05;10.23;;;1.17;;
55063;SDS011;40963;52.168;21.296;2024-01-27T02:07:31;4.53;;;0.88;;
55063;SDS011;40963;52.168;21.296;2024-01-27T02:09:56;5.88;;;1.00;;
55063;SDS011;40963;52.168;21.296;2024-01-27T02:12:22;4.25;;;1.30;;
55063;SDS011;40963;52.168;21.296;2024-01-27T02:14:48;12.10;;;1.60;;
55063;SDS011;40963;52.168;21.296;2024-01-27T02:17:13;8.23;;;1.15;;
55063;SDS011;40963;52.168;21.296;2024-01-27T02:19:39;6.95;;;1.38;;
55063;SDS011;40963;52.168;21.296;2024-01-27T02:22:04;3.45;;;1.02;;
55063;SDS011;40963;52.168;21.296;2024-01-27T02:24:30;2.38;;;0.73;;
55063;SDS011;40963;52.168;21.296;2024-01-27T02:26:56;8.43;;;1.23;;
55063;SDS011;40963;52.168;21.296;2024-01-27T02:29:21;3.90;;;1.10;;
55063;SDS011;40963;52.168;21.296;2024-01-27T02:31:47;1.55;;;0.82;;
55063;SDS011;40963;52.168;21.296;2024-01-27T02:34:13;14.73;;;1.83;;
55063;SDS011;40963;52.168;21.296;2024-01-27T02:36:38;5.47;;;1.73;;
55063;SDS011;40963;52.168;21.296;2024-01-27T02:39:04;9.13;;;0.90;;
55063;SDS011;40963;52.168;21.296;2024-01-27T02:41:29;3.60;;;1.60;;
55063;SDS011;40963;52.168;21.296;2024-01-27T02:43:55;4.30;;;1.05;;
55063;SDS011;40963;52.168;21.296;2024-01-27T02:46:21;1.85;;;0.90;;
55063;SDS011;40963;52.168;21.296;2024-01-27T02:48:46;4.70;;;1.42;;
55063;SDS011;40963;52.168;21.296;2024-01-27T02:51:12;2.65;;;1.20;;
55063;SDS011;40963;52.168;21.296;2024-01-27T02:53:38;3.28;;;1.65;;
55063;SDS011;40963;52.168;21.296;2024-01-27T02:56:06;6.15;;;2.08;;
55063;SDS011;40963;52.168;21.296;2024-01-27T02:58:33;13.80;;;1.63;;
55063;SDS011;40963;52.168;21.296;2024-01-27T03:00:58;10.10;;;1.90;;
55063;SDS011;40963;52.168;21.296;2024-01-27T03:03:24;9.82;;;1.50;;
55063;SDS011;40963;52.168;21.296;2024-01-27T03:05:49;6.65;;;1.70;;
55063;SDS011;40963;52.168;21.296;2024-01-27T03:08:15;3.05;;;1.70;;
55063;SDS011;40963;52.168;21.296;2024-01-27T03:10:40;7.30;;;1.73;;
55063;SDS011;40963;52.168;21.296;2024-01-27T03:13:06;19.92;;;1.98;;
55063;SDS011;40963;52.168;21.296;2024-01-27T03:15:31;4.35;;;1.60;;
55063;SDS011;40963;52.168;21.296;2024-01-27T03:17:58;7.30;;;1.38;;
55063;SDS011;40963;52.168;21.296;2024-01-27T03:20:24;8.40;;;1.88;;
55063;SDS011;40963;52.168;21.296;2024-01-27T03:22:49;6.22;;;1.45;;
55063;SDS011;40963;52.168;21.296;2024-01-27T03:25:15;2.25;;;1.10;;
55063;SDS011;40963;52.168;21.296;2024-01-27T03:27:40;2.60;;;1.40;;
55063;SDS011;40963;52.168;21.296;2024-01-27T03:30:06;2.50;;;1.40;;
55063;SDS011;40963;52.168;21.296;2024-01-27T03:32:32;2.97;;;0.77;;
55063;SDS011;40963;52.168;21.296;2024-01-27T03:35:01;11.65;;;1.65;;
55063;SDS011;40963;52.168;21.296;2024-01-27T03:37:27;7.63;;;1.55;;
55063;SDS011;40963;52.168;21.296;2024-01-27T03:39:53;5.55;;;1.27;;
55063;SDS011;40963;52.168;21.296;2024-01-27T03:42:18;4.82;;;1.45;;
55063;SDS011;40963;52.168;21.296;2024-01-27T03:44:44;16.77;;;1.50;;
55063;SDS011;40963;52.168;21.296;2024-01-27T03:47:10;7.40;;;1.77;;
55063;SDS011;40963;52.168;21.296;2024-01-27T03:49:35;2.13;;;1.42;;
55063;SDS011;40963;52.168;21.296;2024-01-27T03:52:01;6.80;;;1.63;;
55063;SDS011;40963;52.168;21.296;2024-01-27T03:54:27;11.23;;;1.95;;
55063;SDS011;40963;52.168;21.296;2024-01-27T03:56:52;7.43;;;1.60;;
55063;SDS011;40963;52.168;21.296;2024-01-27T03:59:19;3.80;;;0.80;;
55063;SDS011;40963;52.168;21.296;2024-01-27T04:01:44;2.53;;;1.23;;
55063;SDS011;40963;52.168;21.296;2024-01-27T04:04:10;1.23;;;0.88;;
55063;SDS011;40963;52.168;21.296;2024-01-27T04:06:36;6.20;;;1.85;;
55063;SDS011;40963;52.168;21.296;2024-01-27T04:09:03;3.85;;;1.15;;
55063;SDS011;40963;52.168;21.296;2024-01-27T04:11:29;8.82;;;1.52;;
55063;SDS011;40963;52.168;21.296;2024-01-27T04:13:54;4.97;;;0.82;;
55063;SDS011;40963;52.168;21.296;2024-01-27T04:16:20;8.98;;;1.90;;
55063;SDS011;40963;52.168;21.296;2024-01-27T04:18:45;2.33;;;0.95;;
55063;SDS011;40963;52.168;21.296;2024-01-27T04:21:11;6.55;;;1.60;;
55063;SDS011;40963;52.168;21.296;2024-01-27T04:23:37;6.20;;;1.90;;
55063;SDS011;40963;52.168;21.296;2024-01-27T04:26:03;4.45;;;1.17;;
55063;SDS011;40963;52.168;21.296;2024-01-27T04:28:30;14.23;;;1.50;;
55063;SDS011;40963;52.168;21.296;2024-01-27T04:30:56;7.72;;;1.60;;
55063;SDS011;40963;52.168;21.296;2024-01-27T04:33:22;4.63;;;1.15;;
55063;SDS011;40963;52.168;21.296;2024-01-27T04:35:47;9.13;;;1.80;;
55063;SDS011;40963;52.168;21.296;2024-01-27T04:38:13;10.32;;;1.55;;
55063;SDS011;40963;52.168;21.296;2024-01-27T04:40:38;6.22;;;1.67;;
55063;SDS011;40963;52.168;21.296;2024-01-27T04:43:04;13.60;;;2.28;;
55063;SDS011;40963;52.168;21.296;2024-01-27T04:45:29;11.30;;;1.95;;
55063;SDS011;40963;52.168;21.296;2024-01-27T04:47:55;4.82;;;1.88;;
55063;SDS011;40963;52.168;21.296;2024-01-27T04:50:21;3.75;;;1.13;;
55063;SDS011;40963;52.168;21.296;2024-01-27T04:52:46;8.35;;;2.03;;
55063;SDS011;40963;52.168;21.296;2024-01-27T04:55:12;5.22;;;1.92;;
55063;SDS011;40963;52.168;21.296;2024-01-27T04:57:37;6.15;;;2.08;;
55063;SDS011;40963;52.168;21.296;2024-01-27T05:00:03;6.78;;;1.90;;
55063;SDS011;40963;52.168;21.296;2024-01-27T05:02:32;4.22;;;2.00;;
55063;SDS011;40963;52.168;21.296;2024-01-27T05:04:58;3.97;;;1.45;;
55063;SDS011;40963;52.168;21.296;2024-01-27T05:07:24;3.83;;;1.40;;
55063;SDS011;40963;52.168;21.296;2024-01-27T05:09:49;3.70;;;0.90;;
55063;SDS011;40963;52.168;21.296;2024-01-27T05:12:15;3.45;;;2.03;;
55063;SDS011;40963;52.168;21.296;2024-01-27T05:14:44;9.48;;;2.30;;
55063;SDS011;40963;52.168;21.296;2024-01-27T05:17:10;5.30;;;1.95;;
55063;SDS011;40963;52.168;21.296;2024-01-27T05:19:36;7.07;;;1.63;;
55063;SDS011;40963;52.168;21.296;2024-01-27T05:22:01;9.95;;;1.58;;
55063;SDS011;40963;52.168;21.296;2024-01-27T05:24:27;5.45;;;1.30;;
55063;SDS011;40963;52.168;21.296;2024-01-27T05:26:53;6.70;;;2.13;;
55063;SDS011;40963;52.168;21.296;2024-01-27T05:29:18;3.45;;;1.63;;
55063;SDS011;40963;52.168;21.296;2024-01-27T05:31:44;4.25;;;1.33;;
55063;SDS011;40963;52.168;21.296;2024-01-27T05:34:10;2.80;;;1.65;;
55063;SDS011;40963;52.168;21.296;2024-01-27T05:36:36;5.82;;;2.20;;
55063;SDS011;40963;52.168;21.296;2024-01-27T05:39:01;10.98;;;2.20;;
55063;SDS011;40963;52.168;21.296;2024-01-27T05:41:29;10.15;;;1.42;;
55063;SDS011;40963;52.168;21.296;2024-01-27T05:43:55;10.50;;;1.80;;
55063;SDS011;40963;52.168;21.296;2024-01-27T05:46:24;7.95;;;2.65;;
55063;SDS011;40963;52.168;21.296;2024-01-27T05:48:50;15.00;;;2.92;;
55063;SDS011;40963;52.168;21.296;2024-01-27T05:51:18;3.40;;;1.55;;
55063;SDS011;40963;52.168;21.296;2024-01-27T05:53:44;13.30;;;2.22;;
55063;SDS011;40963;52.168;21.296;2024-01-27T05:56:11;7.28;;;1.90;;
55063;SDS011;40963;52.168;21.296;2024-01-27T05:58:36;5.57;;;0.90;;
55063;SDS011;40963;52.168;21.296;2024-01-27T06:01:02;5.70;;;1.92;;
55063;SDS011;40963;52.168;21.296;2024-01-27T06:03:28;4.68;;;1.60;;
55063;SDS011;40963;52.168;21.296;2024-01-27T06:05:54;6.97;;;2.50;;
55063;SDS011;40963;52.168;21.296;2024-01-27T06:08:20;5.63;;;2.33;;
55063;SDS011;40963;52.168;21.296;2024-01-27T06:10:46;10.27;;;1.35;;
55063;SDS011;40963;52.168;21.296;2024-01-27T06:13:12;6.10;;;1.30;;
55063;SDS011;40963;52.168;21.296;2024-01-27T06:15:37;4.88;;;1.25;;
55063;SDS011;40963;52.168;21.296;2024-01-27T06:18:03;3.90;;;1.38;;
55063;SDS011;40963;52.168;21.296;2024-01-27T06:20:29;8.55;;;2.22;;
55063;SDS011;40963;52.168;21.296;2024-01-27T06:22:54;27.73;;;2.72;;
55063;SDS011;40963;52.168;21.296;2024-01-27T06:25:20;3.60;;;1.58;;
55063;SDS011;40963;52.168;21.296;2024-01-27T06:27:46;2.72;;;1.80;;
55063;SDS011;40963;52.168;21.296;2024-01-27T06:30:12;5.43;;;1.70;;
55063;SDS011;40963;52.168;21.296;2024-01-27T06:32:38;7.50;;;1.85;;
55063;SDS011;40963;52.168;21.296;2024-01-27T06:35:04;6.78;;;2.20;;
55063;SDS011;40963;52.168;21.296;2024-01-27T06:37:30;7.53;;;1.33;;
55063;SDS011;40963;52.168;21.296;2024-01-27T06:39:56;3.75;;;1.27;;
55063;SDS011;40963;52.168;21.296;2024-01-27T06:42:22;7.70;;;2.00;;
55063;SDS011;40963;52.168;21.296;2024-01-27T06:44:47;16.73;;;3.03;;
55063;SDS011;40963;52.168;21.296;2024-01-27T06:47:13;4.30;;;1.20;;
55063;SDS011;40963;52.168;21.296;2024-01-27T06:49:39;4.40;;;0.88;;
55063;SDS011;40963;52.168;21.296;2024-01-27T06:52:04;8.85;;;2.03;;
55063;SDS011;40963;52.168;21.296;2024-01-27T06:54:30;11.30;;;2.05;;
55063;SDS011;40963;52.168;21.296;2024-01-27T06:56:55;6.55;;;1.20;;
55063;SDS011;40963;52.168;21.296;2024-01-27T06:59:21;19.50;;;2.55;;
55063;SDS011;40963;52.168;21.296;2024-01-27T07:01:47;1.88;;;1.00;;
55063;SDS011;40963;52.168;21.296;2024-01-27T07:04:15;4.97;;;1.67;;
55063;SDS011;40963;52.168;21.296;2024-01-27T07:06:42;8.02;;;2.35;;
55063;SDS011;40963;52.168;21.296;2024-01-27T07:09:08;8.82;;;1.90;;
55063;SDS011;40963;52.168;21.296;2024-01-27T07:11:36;8.50;;;1.65;;
55063;SDS011;40963;52.168;21.296;2024-01-27T07:14:03;7.95;;;1.90;;
55063;SDS011;40963;52.168;21.296;2024-01-27T07:16:29;7.63;;;2.35;;
55063;SDS011;40963;52.168;21.296;2024-01-27T07:18:55;6.88;;;2.17;;
55063;SDS011;40963;52.168;21.296;2024-01-27T07:21:20;3.50;;;1.30;;
55063;SDS011;40963;52.168;21.296;2024-01-27T07:23:46;10.23;;;1.88;;
55063;SDS011;40963;52.168;21.296;2024-01-27T07:26:12;5.28;;;1.60;;
55063;SDS011;40963;52.168;21.296;2024-01-27T07:28:38;7.75;;;2.47;;
55063;SDS011;40963;52.168;21.296;2024-01-27T07:31:04;8.55;;;2.40;;
55063;SDS011;40963;52.168;21.296;2024-01-27T07:33:30;6.47;;;1.90;;
55063;SDS011;40963;52.168;21.296;2024-01-27T07:35:56;4.88;;;1.88;;
55063;SDS011;40963;52.168;21.296;2024-01-27T07:38:22;4.63;;;2.05;;
55063;SDS011;40963;52.168;21.296;2024-01-27T07:40:47;9.82;;;2.35;;
55063;SDS011;40963;52.168;21.296;2024-01-27T07:43:13;6.65;;;2.60;;
55063;SDS011;40963;52.168;21.296;2024-01-27T07:45:38;7.35;;;1.65;;
55063;SDS011;40963;52.168;21.296;2024-01-27T07:48:04;8.93;;;2.40;;
55063;SDS011;40963;52.168;21.296;2024-01-27T07:50:30;6.55;;;2.22;;
55063;SDS011;40963;52.168;21.296;2024-01-27T07:52:56;4.60;;;2.35;;
55063;SDS011;40963;52.168;21.296;2024-01-27T07:55:22;7.90;;;2.53;;
55063;SDS011;40963;52.168;21.296;2024-01-27T07:57:47;9.10;;;2.92;;
55063;SDS011;40963;52.168;21.296;2024-01-27T08:00:13;4.57;;;1.77;;
55063;SDS011;40963;52.168;21.296;2024-01-27T08:02:39;7.32;;;1.83;;
55063;SDS011;40963;52.168;21.296;2024-01-27T08:05:04;7.50;;;2.72;;
55063;SDS011;40963;52.168;21.296;2024-01-27T08:07:31;4.18;;;1.40;;
55063;SDS011;40963;52.168;21.296;2024-01-27T08:09:57;8.25;;;2.65;;
55063;SDS011;40963;52.168;21.296;2024-01-27T08:12:23;4.47;;;1.85;;
55063;SDS011;40963;52.168;21.296;2024-01-27T08:14:48;4.22;;;1.50;;
55063;SDS011;40963;52.168;21.296;2024-01-27T08:17:15;5.35;;;1.77;;
55063;SDS011;40963;52.168;21.296;2024-01-27T08:19:40;2.92;;;1.90;;
55063;SDS011;40963;52.168;21.296;2024-01-27T08:22:06;2.22;;;1.48;;
55063;SDS011;40963;52.168;21.296;2024-01-27T08:24:34;7.78;;;1.80;;
55063;SDS011;40963;52.168;21.296;2024-01-27T08:27:00;7.70;;;2.72;;
55063;SDS011;40963;52.168;21.296;2024-01-27T08:29:26;5.40;;;2.00;;
55063;SDS011;40963;52.168;21.296;2024-01-27T08:31:51;1.80;;;1.52;;
55063;SDS011;40963;52.168;21.296;2024-01-27T08:34:17;3.10;;;2.50;;
55063;SDS011;40963;52.168;21.296;2024-01-27T08:36:43;9.38;;;2.60;;
55063;SDS011;40963;52.168;21.296;2024-01-27T08:39:08;10.77;;;2.15;;
55063;SDS011;40963;52.168;21.296;2024-01-27T08:41:34;7.60;;;2.35;;
55063;SDS011;40963;52.168;21.296;2024-01-27T08:44:00;5.80;;;1.63;;
55063;SDS011;40963;52.168;21.296;2024-01-27T08:46:25;4.15;;;2.17;;
55063;SDS011;40963;52.168;21.296;2024-01-27T08:48:51;10.18;;;2.67;;
55063;SDS011;40963;52.168;21.296;2024-01-27T08:51:16;3.08;;;1.92;;
55063;SDS011;40963;52.168;21.296;2024-01-27T08:53:43;10.13;;;2.55;;
55063;SDS011;40963;52.168;21.296;2024-01-27T08:56:17;2.58;;;1.90;;
55063;SDS011;40963;52.168;21.296;2024-01-27T08:58:43;3.10;;;2.03;;
55063;SDS011;40963;52.168;21.296;2024-01-27T09:01:09;3.55;;;2.33;;
55063;SDS011;40963;52.168;21.296;2024-01-27T09:03:37;14.55;;;2.97;;
55063;SDS011;40963;52.168;21.296;2024-01-27T09:06:05;2.42;;;1.83;;
55063;SDS011;40963;52.168;21.296;2024-01-27T09:08:32;4.68;;;2.40;;
55063;SDS011;40963;52.168;21.296;2024-01-27T09:10:59;2.70;;;1.92;;
55063;SDS011;40963;52.168;21.296;2024-01-27T09:13:25;7.18;;;2.60;;
55063;SDS011;40963;52.168;21.296;2024-01-27T09:15:55;3.90;;;2.05;;
55063;SDS011;40963;52.168;21.296;2024-01-27T09:18:22;7.70;;;2.30;;
55063;SDS011;40963;52.168;21.296;2024-01-27T09:20:47;10.38;;;2.30;;
55063;SDS011;40963;52.168;21.296;2024-01-27T09:23:13;3.33;;;2.10;;
55063;SDS011;40963;52.168;21.296;2024-01-27T09:25:39;3.20;;;1.63;;
55063;SDS011;40963;52.168;21.296;2024-01-27T09:28:05;6.85;;;2.50;;
55063;SDS011;40963;52.168;21.296;2024-01-27T09:30:31;1.50;;;1.40;;
55063;SDS011;40963;52.168;21.296;2024-01-27T09:32:56;3.25;;;2.03;;
55063;SDS011;40963;52.168;21.296;2024-01-27T09:35:22;6.60;;;2.45;;
55063;SDS011;40963;52.168;21.296;2024-01-27T09:37:48;10.82;;;2.33;;
55063;SDS011;40963;52.168;21.296;2024-01-27T09:40:13;2.03;;;1.75;;
55063;SDS011;40963;52.168;21.296;2024-01-27T09:42:39;5.25;;;2.25;;
55063;SDS011;40963;52.168;21.296;2024-01-27T09:45:12;5.45;;;2.42;;
55063;SDS011;40963;52.168;21.296;2024-01-27T09:47:38;5.68;;;2.40;;
55063;SDS011;40963;52.168;21.296;2024-01-27T09:50:05;3.65;;;2.13;;
55063;SDS011;40963;52.168;21.296;2024-01-27T09:52:33;6.78;;;2.90;;
55063;SDS011;40963;52.168;21.296;2024-01-27T09:54:59;7.15;;;3.35;;
55063;SDS011;40963;52.168;21.296;2024-01-27T09:57:25;3.83;;;2.25;;
55063;SDS011;40963;52.168;21.296;2024-01-27T09:59:51;6.72;;;1.67;;
55063;SDS011;40963;52.168;21.296;2024-01-27T10:02:17;5.28;;;1.98;;
55063;SDS011;40963;52.168;21.296;2024-01-27T10:04:47;4.53;;;2.47;;
55063;SDS011;40963;52.168;21.296;2024-01-27T10:07:13;9.35;;;3.05;;
55063;SDS011;40963;52.168;21.296;2024-01-27T10:09:39;4.70;;;2.33;;
55063;SDS011;40963;52.168;21.296;2024-01-27T10:12:06;3.38;;;2.47;;
55063;SDS011;40963;52.168;21.296;2024-01-27T10:14:41;7.35;;;2.03;;
55063;SDS011;40963;52.168;21.296;2024-01-27T10:17:19;4.95;;;1.67;;
55063;SDS011;40963;52.168;21.296;2024-01-27T10:20:03;5.13;;;2.42;;
55063;SDS011;40963;52.168;21.296;2024-01-27T10:22:39;5.93;;;1.85;;
55063;SDS011;40963;52.168;21.296;2024-01-27T10:25:05;3.53;;;1.90;;
55063;SDS011;40963;52.168;21.296;2024-01-27T10:27:32;3.70;;;2.60;;
55063;SDS011;40963;52.168;21.296;2024-01-27T10:29:58;3.85;;;2.15;;
55063;SDS011;40963;52.168;21.296;2024-01-27T10:32:23;5.40;;;2.05;;
55063;SDS011;40963;52.168;21.296;2024-01-27T10:34:49;3.05;;;1.67;;
55063;SDS011;40963;52.168;21.296;2024-01-27T10:37:33;3.10;;;1.48;;
55063;SDS011;40963;52.168;21.296;2024-01-27T10:40:08;10.60;;;2.22;;
55063;SDS011;40963;52.168;21.296;2024-01-27T10:42:35;5.82;;;2.55;;
55063;SDS011;40963;52.168;21.296;2024-01-27T10:45:02;6.75;;;2.53;;
55063;SDS011;40963;52.168;21.296;2024-01-27T10:47:29;8.70;;;2.00;;
55063;SDS011;40963;52.168;21.296;2024-01-27T10:49:56;3.13;;;1.80;;
55063;SDS011;40963;52.168;21.296;2024-01-27T10:52:28;6.65;;;2.20;;
55063;SDS011;40963;52.168;21.296;2024-01-27T10:54:59;3.97;;;1.77;;
55063;SDS011;40963;52.168;21.296;2024-01-27T10:57:28;5.78;;;2.30;;
55063;SDS011;40963;52.168;21.296;2024-01-27T10:59:55;4.10;;;1.98;;
55063;SDS011;40963;52.168;21.296;2024-01-27T11:02:22;2.78;;;2.05;;
55063;SDS011;40963;52.168;21.296;2024-01-27T11:04:48;2.90;;;2.45;;
55063;SDS011;40963;52.168;21.296;2024-01-27T11:07:23;4.82;;;2.42;;
55063;SDS011;40963;52.168;21.296;2024-01-27T11:09:49;3.65;;;2.30;;
55063;SDS011;40963;52.168;21.296;2024-01-27T11:12:16;2.30;;;2.10;;
55063;SDS011;40963;52.168;21.296;2024-01-27T11:14:43;2.78;;;1.90;;
55063;SDS011;40963;52.168;21.296;2024-01-27T11:17:10;5.15;;;2.85;;
55063;SDS011;40963;52.168;21.296;2024-01-27T11:19:36;1.92;;;1.73;;
55063;SDS011;40963;52.168;21.296;2024-01-27T11:22:04;5.68;;;2.60;;
55063;SDS011;40963;52.168;21.296;2024-01-27T11:24:30;4.07;;;3.15;;
55063;SDS011;40963;52.168;21.296;2024-01-27T11:29:27;2.50;;;2.30;;
55063;SDS011;40963;52.168;21.296;2024-01-27T11:31:54;3.80;;;2.40;;
55063;SDS011;40963;52.168;21.296;2024-01-27T11:34:21;5.75;;;1.77;;
55063;SDS011;40963;52.168;21.296;2024-01-27T11:36:47;3.13;;;2.22;;
55063;SDS011;40963;52.168;21.296;2024-01-27T11:39:29;7.22;;;2.22;;
55063;SDS011;40963;52.168;21.296;2024-01-27T11:42:04;4.90;;;2.60;;
55063;SDS011;40963;52.168;21.296;2024-01-27T11:44:33;9.13;;;1.75;;
55063;SDS011;40963;52.168;21.296;2024-01-27T11:46:59;4.25;;;2.50;;
55063;SDS011;40963;52.168;21.296;2024-01-27T11:49:25;2.60;;;1.90;;
55063;SDS011;40963;52.168;21.296;2024-01-27T11:51:52;4.57;;;2.75;;
55063;SDS011;40963;52.168;21.296;2024-01-27T11:54:17;2.58;;;2.33;;
55063;SDS011;40963;52.168;21.296;2024-01-27T11:56:43;4.57;;;3.03;;
55063;SDS011;40963;52.168;21.296;2024-01-27T11:59:09;4.03;;;2.70;;
55063;SDS011;40963;52.168;21.296;2024-01-27T12:01:36;5.85;;;2.25;;
55063;SDS011;40963;52.168;21.296;2024-01-27T12:04:02;5.00;;;1.90;;
55063;SDS011;40963;52.168;21.296;2024-01-27T12:06:29;4.25;;;2.13;;
55063;SDS011;40963;52.168;21.296;2024-01-27T12:08:55;11.50;;;4.25;;
55063;SDS011;40963;52.168;21.296;2024-01-27T12:11:25;2.58;;;1.73;;
55063;SDS011;40963;52.168;21.296;2024-01-27T12:13:51;3.17;;;2.53;;
55063;SDS011;40963;52.168;21.296;2024-01-27T12:16:18;5.10;;;2.47;;
55063;SDS011;40963;52.168;21.296;2024-01-27T12:18:46;19.35;;;6.45;;
55063;SDS011;40963;52.168;21.296;2024-01-27T12:21:12;13.02;;;5.55;;
55063;SDS011;40963;52.168;21.296;2024-01-27T12:23:49;12.60;;;5.00;;
55063;SDS011;40963;52.168;21.296;2024-01-27T12:26:19;7.13;;;3.70;;
55063;SDS011;40963;52.168;21.296;2024-01-27T12:28:46;8.52;;;3.90;;
55063;SDS011;40963;52.168;21.296;2024-01-27T12:31:16;5.18;;;2.78;;
55063;SDS011;40963;52.168;21.296;2024-01-27T12:33:48;2.25;;;2.03;;
55063;SDS011;40963;52.168;21.296;2024-01-27T12:51:36;2.50;;;1.58;;
55063;SDS011;40963;52.168;21.296;2024-01-27T12:54:02;2.45;;;1.95;;
55063;SDS011;40963;52.168;21.296;2024-01-27T12:56:28;2.78;;;2.47;;
55063;SDS011;40963;52.168;21.296;2024-01-27T12:58:53;2.30;;;1.90;;
55063;SDS011;40963;52.168;21.296;2024-01-27T13:01:19;2.80;;;2.42;;
55063;SDS011;40963;52.168;21.296;2024-01-27T13:03:44;7.22;;;3.47;;
55063;SDS011;40963;52.168;21.296;2024-01-27T13:06:10;4.38;;;3.17;;
55063;SDS011;40963;52.168;21.296;2024-01-27T13:08:36;4.32;;;3.05;;
55063;SDS011;40963;52.168;21.296;2024-01-27T13:11:01;7.68;;;3.10;;
55063;SDS011;40963;52.168;21.296;2024-01-27T13:13:27;4.65;;;3.03;;
55063;SDS011;40963;52.168;21.296;2024-01-27T13:15:53;5.03;;;3.45;;
55063;SDS011;40963;52.168;21.296;2024-01-27T13:18:18;4.38;;;2.42;;
55063;SDS011;40963;52.168;21.296;2024-01-27T13:20:44;4.03;;;3.25;;
55063;SDS011;40963;52.168;21.296;2024-01-27T13:23:10;6.97;;;2.85;;
55063;SDS011;40963;52.168;21.296;2024-01-27T13:25:35;2.40;;;2.20;;
55063;SDS011;40963;52.168;21.296;2024-01-27T13:28:01;2.80;;;2.42;;
55063;SDS011;40963;52.168;21.296;2024-01-27T13:30:27;10.35;;;3.72;;
55063;SDS011;40963;52.168;21.296;2024-01-27T13:32:53;4.50;;;2.80;;
55063;SDS011;40963;52.168;21.296;2024-01-27T13:35:19;5.80;;;2.67;;
55063;SDS011;40963;52.168;21.296;2024-01-27T13:37:44;6.05;;;3.47;;
55063;SDS011;40963;52.168;21.296;2024-01-27T13:40:11;4.50;;;2.53;;
55063;SDS011;40963;52.168;21.296;2024-01-27T13:42:36;4.10;;;3.03;;
55063;SDS011;40963;52.168;21.296;2024-01-27T13:45:02;9.13;;;2.40;;
55063;SDS011;40963;52.168;21.296;2024-01-27T13:47:28;7.00;;;3.80;;
55063;SDS011;40963;52.168;21.296;2024-01-27T13:49:54;7.55;;;3.45;;
55063;SDS011;40963;52.168;21.296;2024-01-27T13:52:20;3.70;;;2.28;;
55063;SDS011;40963;52.168;21.296;2024-01-27T13:54:46;5.03;;;2.90;;
55063;SDS011;40963;52.168;21.296;2024-01-27T13:57:11;7.13;;;4.00;;
55063;SDS011;40963;52.168;21.296;2024-01-27T13:59:37;9.52;;;3.78;;
55063;SDS011;40963;52.168;21.296;2024-01-27T14:02:03;9.50;;;3.72;;
55063;SDS011;40963;52.168;21.296;2024-01-27T14:04:29;7.00;;;4.07;;
55063;SDS011;40963;52.168;21.296;2024-01-27T14:06:54;7.93;;;3.67;;
55063;SDS011;40963;52.168;21.296;2024-01-27T14:09:21;6.47;;;2.63;;
55063;SDS011;40963;52.168;21.296;2024-01-27T14:11:47;3.85;;;2.63;;
55063;SDS011;40963;52.168;21.296;2024-01-27T14:14:12;3.97;;;2.55;;
55063;SDS011;40963;52.168;21.296;2024-01-27T14:16:38;11.15;;;3.53;;
55063;SDS011;40963;52.168;21.296;2024-01-27T14:19:04;3.88;;;2.72;;
55063;SDS011;40963;52.168;21.296;2024-01-27T14:21:31;6.10;;;3.70;;
55063;SDS011;40963;52.168;21.296;2024-01-27T14:23:57;3.60;;;2.70;;
55063;SDS011;40963;52.168;21.296;2024-01-27T14:26:29;9.02;;;4.00;;
55063;SDS011;40963;52.168;21.296;2024-01-27T14:28:55;4.43;;;2.63;;
55063;SDS011;40963;52.168;21.296;2024-01-27T14:31:21;4.85;;;2.95;;
55063;SDS011;40963;52.168;21.296;2024-01-27T14:33:47;2.55;;;2.13;;
55063;SDS011;40963;52.168;21.296;2024-01-27T14:36:16;5.03;;;2.95;;
55063;SDS011;40963;52.168;21.296;2024-01-27T14:38:42;2.80;;;2.10;;
55063;SDS011;40963;52.168;21.296;2024-01-27T14:41:07;3.17;;;2.25;;
55063;SDS011;40963;52.168;21.296;2024-01-27T14:43:33;5.22;;;2.67;;
55063;SDS011;40963;52.168;21.296;2024-01-27T14:45:59;2.92;;;2.20;;